Hauptseite
METAR-TAF:

METAR-TAF

Flughäfen :

Wladiwostok, Russland

Flughafen Wladiwostok

Breite: 43-07N, Länge: 131-56E, Höhe: 184 m

Beobachtung

Neuester Wetterbericht von vor 31 Minuten, um 07:00 UTC
Wind 14 kt aus Nord/Nordwest
Temperatur 4°C
Luftfeuchtigkeit 28%
Luftdruck 1009 hPa
Sichtweite 10 km oder mehr

METAR: UHWW 220700Z 33007MPS 9999 NSC 04/M13 Q1009 R25L/0///70 NOSIG RMK QFE755

Zeit: 17:31 (07:31 UTC)

Prognose

Neuester Wetterbericht von vor 2 Stunden und 36 Minuten, um 04:55 UTC
Gültige Prognose vom 22 um 06 UTC bis 23 um 06 UTC
Wind 6 kt aus Nordwest
Sichtweite 10 km oder mehr
Durchbrochene Bewölkung in der Höhe von 3000 ft, Kumulonimbus.
Zeitweise
vom 22 um 06 UTC bis 22 um 12 UTC
Wind 21 kt aus Nord/Nordwest
Sichtweite: 4000 m
Durchbrochene Bewölkung in der Höhe von 1300 ft, Kumulonimbus.
Schneeschauer

TAF: UHWW 220455Z 2206/2306 32003MPS 9999 BKN030CB TEMPO 2206/2212 33011MPS 4000 -SHSN BKN013CB

Wetterbeobachtungen und Prognosen von mehr als 4000 Flughäfen (METAR und TAF Bericht).

Die verfügbaren Stationen werden durch gelbe und rote Markierungen auf der Karte dargestellt.

Führen Sie die Maus auf sie, um den Namen der Station zu sehen.

Darauf klicken, um die Beobachtung von Wetterbeobachtungen und Prognosen zu sehen.

Um die Karte zu ändern : klicken Sie auf den grünen Tasten mit einem schwarzen Kreuz Zum Vergrößern, auf den grünen Button mit einem Gedankenstrich zu verkleinern, oder auf die grünen Pfeile für benachbarte Karten.


METAR-TAF: